Time;durP1;ratioP1;P1;durP2;ratioP2;P2;SDS_P1;SDS_P2;PMS_P1;PMS_P2;Temp;Humidity;BMP_temperature;BMP_pressure;BME280_temperature;BME280_humidity;BME280_pressure;Samples;Min_cycle;Max_cycle;Signal;HPM_P1;HPM_P2
2022/08/25 00:03:03;;;;;;;16.45;14.65;;;25.80;62.90;;;;;;4742579;55;21458;-35
2022/08/25 00:08:05;;;;;;;15.80;13.73;;;25.80;62.90;;;;;;4743987;55;21064;-36
2022/08/25 00:13:06;;;;;;;15.32;13.73;;;25.80;62.90;;;;;;4736828;55;22290;-34
2022/08/25 00:18:06;;;;;;;17.00;13.93;;;25.80;62.90;;;;;;4754236;55;21043;-35
2022/08/25 00:23:07;;;;;;;17.00;14.13;;;25.80;62.90;;;;;;4742719;55;21503;-38
2022/08/25 00:28:09;;;;;;;16.08;13.60;;;25.80;62.90;;;;;;4739318;55;21043;-36
2022/08/25 00:33:10;;;;;;;16.55;14.45;;;25.80;62.90;;;;;;4742771;55;21485;-35
2022/08/25 00:38:11;;;;;;;15.73;13.20;;;25.80;62.80;;;;;;4747059;55;21027;-37
2022/08/25 00:43:12;;;;;;;16.77;13.90;;;25.80;62.90;;;;;;4817336;55;21019;-27
2022/08/25 00:48:13;;;;;;;14.65;12.95;;;25.80;63.50;;;;;;4755002;55;21521;-29
2022/08/25 00:53:14;;;;;;;14.68;12.98;;;25.80;62.90;;;;;;4773226;55;21000;-30
2022/08/25 00:58:19;;;;;;;15.73;13.60;;;25.80;62.90;;;;;;4737735;55;21036;-32
2022/08/25 01:03:23;;;;;;;14.40;12.90;;;25.80;62.80;;;;;;4813640;55;21075;-29
2022/08/25 01:08:27;;;;;;;16.10;13.27;;;25.70;62.80;;;;;;4758931;55;21102;-26
2022/08/25 01:13:42;;;;;;;14.98;13.38;;;25.70;62.70;;;;;;4759513;55;21462;-29
2022/08/25 01:18:53;;;;;;;15.23;12.95;;;25.70;62.80;;;;;;4736541;59;21521;-26
2022/08/25 01:23:57;;;;;;;13.73;12.25;;;25.70;62.70;;;;;;4740316;55;20987;-26
2022/08/25 01:34:21;;;;;;;15.48;13.13;;;25.80;62.80;;;;;;4735271;55;21011;-28
2022/08/25 01:39:24;;;;;;;15.13;13.20;;;25.70;62.70;;;;;;4758563;55;21032;-33
2022/08/25 01:44:25;;;;;;;15.00;12.68;;;25.70;62.70;;;;;;4766289;55;21048;-29
2022/08/25 01:49:26;;;;;;;14.02;12.35;;;25.70;62.70;;;;;;4744900;55;20991;-29
2022/08/25 01:54:27;;;;;;;15.60;13.45;;;25.70;62.70;;;;;;4742178;55;21016;-27
2022/08/25 01:59:28;;;;;;;14.82;13.20;;;25.70;62.60;;;;;;4736615;59;21469;-29
2022/08/25 02:04:30;;;;;;;15.55;12.68;;;25.70;62.70;;;;;;4795883;55;20992;-27
2022/08/25 02:09:31;;;;;;;14.43;12.32;;;25.70;62.70;;;;;;4753484;55;21552;-38
2022/08/25 02:14:34;;;;;;;13.35;11.95;;;25.70;62.70;;;;;;4736247;59;20991;-28
2022/08/25 02:19:35;;;;;;;13.07;11.65;;;25.70;62.60;;;;;;4739895;55;21564;-36
2022/08/25 02:24:36;;;;;;;13.55;11.45;;;25.70;62.70;;;;;;4740068;55;21115;-29
2022/08/25 02:29:37;;;;;;;13.73;12.05;;;25.70;62.60;;;;;;4743052;55;21462;-25
2022/08/25 02:34:40;;;;;;;13.38;11.95;;;25.70;62.60;;;;;;4760374;55;21064;-30
2022/08/25 02:39:41;;;;;;;14.68;12.57;;;25.70;62.70;;;;;;4759247;55;21003;-37
2022/08/25 02:44:41;;;;;;;16.73;12.88;;;25.70;62.70;;;;;;4742013;55;21059;-27
2022/08/25 02:49:42;;;;;;;14.52;12.50;;;25.70;62.60;;;;;;4737677;55;21000;-31
2022/08/25 02:54:43;;;;;;;14.48;11.45;;;25.70;62.70;;;;;;4738441;55;21011;-30
2022/08/25 02:59:47;;;;;;;15.32;12.52;;;25.70;62.70;;;;;;4740289;55;21525;-27
2022/08/25 03:04:48;;;;;;;14.05;11.90;;;25.70;62.70;;;;;;4780741;55;20983;-35
2022/08/25 03:09:51;;;;;;;13.50;11.93;;;25.70;62.60;;;;;;4770907;55;21019;-36
2022/08/25 03:14:53;;;;;;;14.20;11.95;;;25.70;62.60;;;;;;4749284;55;21596;-31
2022/08/25 03:19:54;;;;;;;13.45;11.68;;;25.70;62.60;;;;;;4743894;55;21490;-32
2022/08/25 03:26:52;;;;;;;14.40;11.52;;;25.70;62.60;;;;;;4798277;55;20984;-27
2022/08/25 03:31:56;;;;;;;14.35;12.10;;;25.70;62.60;;;;;;4745919;55;21458;-38
2022/08/25 03:36:58;;;;;;;13.45;11.95;;;25.70;63.20;;;;;;4757614;55;21478;-29
2022/08/25 03:42:01;;;;;;;15.70;12.40;;;25.70;62.60;;;;;;4755164;55;20976;-36
2022/08/25 03:47:02;;;;;;;14.43;12.07;;;25.70;62.60;;;;;;4738542;55;21517;-28
2022/08/25 03:52:03;;;;;;;15.90;12.13;;;25.70;62.60;;;;;;4735944;55;21070;-32
2022/08/25 03:57:05;;;;;;;14.87;11.90;;;25.70;62.70;;;;;;4736458;55;20991;-34
2022/08/25 04:02:08;;;;;;;14.70;12.00;;;25.70;62.60;;;;;;4748801;55;21501;-30
2022/08/25 04:07:11;;;;;;;16.85;12.40;;;25.70;62.60;;;;;;4783883;55;21043;-27
2022/08/25 04:12:12;;;;;;;17.02;13.07;;;25.70;62.60;;;;;;4755645;55;21022;-33
2022/08/25 04:17:13;;;;;;;16.42;12.60;;;25.70;62.60;;;;;;4753611;55;21011;-29
2022/08/25 04:22:14;;;;;;;17.48;12.88;;;25.70;62.60;;;;;;4745831;55;21075;-26
2022/08/25 04:27:15;;;;;;;15.93;12.90;;;25.70;62.60;;;;;;4762979;55;21003;-29
2022/08/25 04:32:16;;;;;;;19.02;13.80;;;25.70;62.60;;;;;;4742942;55;20996;-27
2022/08/25 04:37:17;;;;;;;18.45;12.30;;;25.70;62.60;;;;;;4745282;55;21030;-32
2022/08/25 04:42:18;;;;;;;15.88;12.60;;;25.70;62.60;;;;;;4777661;55;21047;-32
2022/08/25 04:47:18;;;;;;;16.45;12.88;;;25.60;62.50;;;;;;4767835;55;20992;-32
2022/08/25 04:52:19;;;;;;;19.35;13.23;;;25.60;62.50;;;;;;4787021;55;21466;-29
2022/08/25 04:57:20;;;;;;;15.95;12.90;;;25.60;62.50;;;;;;4796856;55;21052;-26
2022/08/25 05:02:24;;;;;;;16.77;13.65;;;25.70;62.60;;;;;;4735962;59;20987;-26
2022/08/25 05:07:24;;;;;;;16.45;13.38;;;25.60;62.50;;;;;;4744417;55;21514;-33
2022/08/25 05:12:25;;;;;;;16.23;12.82;;;25.60;62.40;;;;;;4784148;55;21020;-33
2022/08/25 05:17:26;;;;;;;17.50;13.20;;;25.60;62.40;;;;;;4747658;55;21462;-33
2022/08/25 05:22:27;;;;;;;16.02;12.93;;;25.60;62.40;;;;;;4737089;55;21506;-32
2022/08/25 05:27:28;;;;;;;16.62;13.13;;;25.60;62.40;;;;;;4750486;55;21466;-36
2022/08/25 05:32:29;;;;;;;18.05;13.75;;;25.60;62.40;;;;;;4756954;55;21108;-31
2022/08/25 05:37:30;;;;;;;17.85;13.30;;;25.70;62.50;;;;;;4744755;55;21011;-32
2022/08/25 05:42:31;;;;;;;17.15;13.70;;;25.60;62.40;;;;;;4762484;55;20995;-28
2022/08/25 05:47:32;;;;;;;18.95;13.62;;;25.70;62.40;;;;;;4736697;59;21103;-25
2022/08/25 05:52:33;;;;;;;19.33;14.13;;;25.60;62.40;;;;;;4794297;55;21063;-25
2022/08/25 05:57:35;;;;;;;21.50;14.30;;;25.60;62.40;;;;;;4737082;55;21234;-28
2022/08/25 06:02:40;;;;;;;19.42;14.73;;;25.60;62.30;;;;;;4739330;55;20976;-27
2022/08/25 06:07:42;;;;;;;18.27;14.50;;;25.60;62.30;;;;;;4750542;55;21553;-30
2022/08/25 06:12:44;;;;;;;20.15;15.27;;;25.60;62.30;;;;;;4752511;55;21501;-36
2022/08/25 06:17:46;;;;;;;19.50;15.27;;;25.60;62.30;;;;;;4748113;55;20992;-26
2022/08/25 06:22:49;;;;;;;18.33;14.68;;;25.60;62.30;;;;;;4764245;55;21453;-28
2022/08/25 06:27:50;;;;;;;20.02;14.18;;;25.60;62.30;;;;;;4753040;55;21051;-29
2022/08/25 06:32:51;;;;;;;20.00;15.02;;;25.60;62.30;;;;;;4769729;55;21561;-28
2022/08/25 06:37:52;;;;;;;21.80;15.82;;;25.60;62.30;;;;;;4736203;59;21505;-29
2022/08/25 06:42:53;;;;;;;21.20;15.82;;;25.60;62.30;;;;;;4744205;55;20979;-27
2022/08/25 06:47:56;;;;;;;26.23;17.37;;;25.60;62.30;;;;;;4769237;55;20975;-27
2022/08/25 06:52:57;;;;;;;44.88;27.50;;;25.60;62.50;;;;;;4750165;55;20988;-31
2022/08/25 06:57:58;;;;;;;65.53;39.40;;;25.60;62.70;;;;;;4781624;55;20995;-30
2022/08/25 07:03:00;;;;;;;61.17;37.35;;;25.50;62.90;;;;;;4743019;55;21955;-26
2022/08/25 07:08:01;;;;;;;51.15;32.75;;;25.40;63.20;;;;;;4740664;55;21625;-28
2022/08/25 07:13:02;;;;;;;70.00;51.42;;;25.40;63.40;;;;;;4767128;55;21067;-28
2022/08/25 07:18:03;;;;;;;68.78;48.22;;;25.30;63.60;;;;;;4741308;55;21062;-31
2022/08/25 07:23:04;;;;;;;46.05;29.98;;;25.30;64.00;;;;;;4734835;59;21081;-35
2022/08/25 07:28:05;;;;;;;43.75;29.40;;;25.20;64.10;;;;;;4735495;59;21513;-27
2022/08/25 07:33:06;;;;;;;39.22;25.85;;;25.20;64.20;;;;;;4741621;55;21019;-28
2022/08/25 07:38:08;;;;;;;42.03;26.87;;;25.20;64.40;;;;;;4742073;55;21597;-31
2022/08/25 07:43:09;;;;;;;40.53;28.33;;;25.20;64.50;;;;;;4767038;55;21441;-29
2022/08/25 07:48:11;;;;;;;39.83;28.35;;;25.20;64.60;;;;;;4758379;55;21534;-34
2022/08/25 07:53:13;;;;;;;40.97;30.48;;;25.20;64.80;;;;;;4735514;59;21068;-29
2022/08/25 07:58:14;;;;;;;46.33;35.33;;;25.20;64.90;;;;;;4737282;59;21477;-36
2022/08/25 08:03:15;;;;;;;46.95;33.55;;;25.20;65.20;;;;;;4737205;55;21469;-36
2022/08/25 08:08:16;;;;;;;39.22;29.60;;;25.30;65.00;;;;;;4738280;55;21083;-32
2022/08/25 08:13:17;;;;;;;43.08;30.65;;;25.50;65.00;;;;;;4738561;55;21024;-36
2022/08/25 08:18:18;;;;;;;38.40;28.77;;;25.50;64.90;;;;;;4737666;55;21454;-30
2022/08/25 08:23:19;;;;;;;39.38;29.15;;;25.50;64.50;;;;;;4737852;55;21028;-29
2022/08/25 08:28:21;;;;;;;38.75;28.65;;;25.60;64.30;;;;;;4736277;59;21525;-30
2022/08/25 08:33:23;;;;;;;38.40;28.33;;;25.60;64.30;;;;;;4736511;55;21538;-30
2022/08/25 08:38:23;;;;;;;34.83;28.00;;;25.70;64.20;;;;;;4744728;55;21092;-30
2022/08/25 08:43:24;;;;;;;37.40;26.65;;;25.70;64.00;;;;;;4762986;55;21094;-36
2022/08/25 08:48:41;;;;;;;41.92;29.98;;;25.70;63.90;;;;;;4740213;55;21072;-29
2022/08/25 08:53:55;;;;;;;36.13;29.80;;;25.70;64.70;;;;;;4763334;55;21043;-30
2022/08/25 08:59:01;;;;;;;41.88;31.75;;;25.70;64.80;;;;;;4775124;55;20996;-27
2022/08/25 09:04:09;;;;;;;44.75;31.95;;;25.70;64.90;;;;;;4765502;55;21071;-26
2022/08/25 09:09:30;;;;;;;44.83;31.80;;;25.80;65.00;;;;;;4747910;55;21071;-28
2022/08/25 09:15:05;;;;;;;38.80;31.37;;;25.80;64.80;;;;;;4774807;55;21004;-29
2022/08/25 09:23:56;;;;;;;36.27;30.10;;;25.80;64.60;;;;;;4738795;55;21016;-31
2022/08/25 09:29:19;;;;;;;35.13;28.42;;;25.80;64.30;;;;;;4736908;59;21031;-30
2022/08/25 09:34:27;;;;;;;37.78;31.58;;;25.80;64.20;;;;;;4750747;55;21063;-29
2022/08/25 09:39:28;;;;;;;46.65;36.30;;;25.80;64.40;;;;;;4753959;55;21480;-32
2022/08/25 09:44:47;;;;;;;51.92;35.45;;;25.80;64.20;;;;;;4753560;55;21011;-28
2022/08/25 09:49:59;;;;;;;51.30;38.22;;;25.80;64.20;;;;;;4736296;59;21786;-30
2022/08/25 09:56:57;;;;;;;50.33;36.83;;;25.80;64.30;;;;;;4814510;55;20999;-31
2022/08/25 10:02:02;;;;;;;56.40;44.97;;;25.80;64.20;;;;;;4735897;59;21477;-32
2022/08/25 10:07:19;;;;;;;67.57;49.95;;;25.80;64.10;;;;;;4740332;55;21036;-31
2022/08/25 10:12:46;;;;;;;62.90;48.08;;;25.80;64.20;;;;;;4758176;55;21051;-28
2022/08/25 10:17:49;;;;;;;60.58;46.45;;;25.80;64.20;;;;;;4735900;56;21477;-30
2022/08/25 10:22:50;;;;;;;62.65;46.60;;;25.90;64.10;;;;;;4753641;55;21707;-30
2022/08/25 10:28:16;;;;;;;58.50;45.80;;;25.90;64.10;;;;;;4742418;55;21737;-27
2022/08/25 10:36:03;;;;;;;56.40;44.90;;;25.90;63.90;;;;;;4751617;55;21000;-32
2022/08/25 10:41:31;;;;;;;52.30;41.53;;;25.90;63.80;;;;;;4738381;55;21056;-30
2022/08/25 10:46:54;;;;;;;54.20;44.33;;;25.90;64.00;;;;;;4750932;55;21498;-32
2022/08/25 10:52:04;;;;;;;63.22;48.70;;;25.90;64.30;;;;;;4784299;55;21546;-29
2022/08/25 11:02:07;;;;;;;61.17;45.55;;;26.00;64.80;;;;;;4736574;59;21019;-30
2022/08/25 11:07:10;;;;;;;;;;;26.00;64.90;;;;;;4745456;55;21051;-28
2022/08/25 11:12:18;;;;;;;60.40;46.47;;;26.00;65.00;;;;;;4754519;55;20133;-27
2022/08/25 11:17:37;;;;;;;61.30;45.42;;;26.00;65.10;;;;;;4750093;55;21023;-32
2022/08/25 11:22:44;;;;;;;58.85;45.55;;;26.00;65.00;;;;;;4736152;59;21043;-29
2022/08/25 11:27:58;;;;;;;65.62;48.92;;;26.00;64.60;;;;;;4736533;59;21529;-34
2022/08/25 11:32:59;;;;;;;63.40;47.95;;;26.00;64.90;;;;;;4737548;55;20987;-33
2022/08/25 11:38:31;;;;;;;63.47;47.55;;;26.10;64.90;;;;;;4755561;55;21004;-33
2022/08/25 11:45:20;;;;;;;64.12;47.75;;;26.10;64.80;;;;;;4742117;55;21111;-32
2022/08/25 11:50:56;;;;;;;60.53;45.95;;;26.10;64.60;;;;;;4748532;55;21050;-28
2022/08/25 11:56:09;;;;;;;62.25;46.35;;;26.10;64.60;;;;;;4750842;55;20972;-30
2022/08/25 12:02:16;;;;;;;62.20;46.10;;;26.10;64.50;;;;;;4748202;55;21063;-32
2022/08/25 12:07:26;;;;;;;58.28;46.35;;;26.10;64.70;;;;;;4748319;55;21048;-28
2022/08/25 12:16:00;;;;;;;63.55;50.88;;;26.10;65.00;;;;;;4736208;55;21517;-30
2022/08/25 12:21:12;;;;;;;63.05;49.30;;;26.20;65.30;;;;;;4739637;55;20987;-29
2022/08/25 12:27:00;;;;;;;65.78;49.25;;;26.20;65.20;;;;;;4774150;55;20984;-31
2022/08/25 12:32:59;;;;;;;59.55;46.45;;;26.20;65.10;;;;;;4750940;55;21011;-29
2022/08/25 12:40:11;;;;;;;61.78;48.70;;;26.20;65.00;;;;;;4770446;55;21450;-27
2022/08/25 12:47:26;;;;;;;60.12;46.85;;;26.20;64.90;;;;;;4754777;55;22266;-29
2022/08/25 12:52:29;;;;;;;61.78;47.50;;;26.20;64.70;;;;;;4736312;55;21546;-36
2022/08/25 12:57:44;;;;;;;56.42;45.17;;;26.20;64.60;;;;;;4736476;55;21051;-28
2022/08/25 13:04:18;;;;;;;61.58;46.17;;;26.20;64.60;;;;;;4763982;55;21035;-32
2022/08/25 13:11:03;;;;;;;57.67;45.40;;;26.20;64.50;;;;;;4743211;55;21069;-28
2022/08/25 13:16:08;;;;;;;57.45;46.50;;;26.20;64.50;;;;;;4737177;56;21546;-32
2022/08/25 13:21:27;;;;;;;56.50;45.15;;;26.20;64.30;;;;;;4770178;55;20995;-32
2022/08/25 13:26:37;;;;;;;56.33;44.58;;;26.20;64.30;;;;;;4736230;59;21568;-31
2022/08/25 13:31:49;;;;;;;59.63;45.72;;;26.20;64.20;;;;;;4754379;55;21087;-32
2022/08/25 13:42:15;;;;;;;54.92;42.80;;;26.20;64.10;;;;;;4736609;59;21139;-28
2022/08/25 13:47:36;;;;;;;55.47;45.08;;;26.20;64.00;;;;;;4747679;55;20987;-30
2022/08/25 13:52:38;;;;;;;55.53;44.00;;;26.20;63.90;;;;;;4735948;59;21087;-29
2022/08/25 13:57:43;;;;;;;54.05;43.65;;;26.20;63.90;;;;;;4771197;55;21047;-27
2022/08/25 14:02:52;;;;;;;52.35;43.47;;;26.20;63.80;;;;;;4760364;55;21034;-29
2022/08/25 14:07:55;;;;;;;55.10;45.00;;;26.20;63.80;;;;;;4746477;55;21008;-33
2022/08/25 14:14:56;;;;;;;54.10;42.00;;;26.20;63.70;;;;;;4752300;55;21015;-28
2022/08/25 14:19:58;;;;;;;53.60;43.65;;;26.20;63.80;;;;;;4744074;55;20967;-29
2022/08/25 14:24:59;;;;;;;52.72;42.60;;;26.20;64.00;;;;;;4764839;55;21003;-28
2022/08/25 14:29:59;;;;;;;50.90;41.42;;;26.20;64.10;;;;;;4775944;55;20995;-29
2022/08/25 14:35:01;;;;;;;52.17;41.88;;;26.20;64.10;;;;;;4752496;55;21014;-30
2022/08/25 14:40:03;;;;;;;54.38;43.05;;;26.10;64.10;;;;;;4736097;59;21482;-25
2022/08/25 14:45:05;;;;;;;52.30;42.67;;;26.10;64.10;;;;;;4818603;55;21071;-29
2022/08/25 14:50:07;;;;;;;50.97;42.33;;;26.10;64.10;;;;;;4785400;55;21011;-30
2022/08/25 14:55:09;;;;;;;50.72;42.42;;;26.10;64.10;;;;;;4772084;55;21005;-32
2022/08/25 15:00:11;;;;;;;48.63;40.42;;;26.10;64.10;;;;;;4788730;55;20979;-37
2022/08/25 15:05:14;;;;;;;48.53;40.55;;;26.10;64.10;;;;;;4736138;59;21623;-26
2022/08/25 15:10:15;;;;;;;47.45;39.70;;;26.10;64.10;;;;;;4735923;59;21136;-34
2022/08/25 15:15:16;;;;;;;50.53;41.45;;;26.00;64.10;;;;;;4745464;55;21136;-29
2022/08/25 15:20:18;;;;;;;50.45;41.17;;;26.00;64.10;;;;;;4738480;55;21469;-34
2022/08/25 15:25:21;;;;;;;46.42;39.08;;;26.00;64.10;;;;;;4769441;55;21446;-29
2022/08/25 15:30:22;;;;;;;51.33;39.30;;;26.00;64.80;;;;;;4740663;55;21486;-27
2022/08/25 15:35:23;;;;;;;48.92;41.08;;;26.00;64.10;;;;;;4735390;59;21020;-31
2022/08/25 15:40:26;;;;;;;45.80;39.05;;;26.00;64.10;;;;;;4735934;59;20995;-31
2022/08/25 15:45:27;;;;;;;48.42;39.88;;;26.00;64.10;;;;;;4736678;55;21114;-30
2022/08/25 15:50:28;;;;;;;47.70;39.22;;;26.00;64.10;;;;;;4737975;55;21002;-30
2022/08/25 15:55:29;;;;;;;45.03;39.00;;;26.00;64.10;;;;;;4781570;55;20996;-29
2022/08/25 16:00:29;;;;;;;44.85;38.58;;;26.00;63.50;;;;;;4736286;59;21015;-26
2022/08/25 16:05:30;;;;;;;47.00;39.28;;;26.00;64.10;;;;;;4736031;59;21075;-29
2022/08/25 16:10:36;;;;;;;47.08;37.80;;;26.00;64.10;;;;;;4799452;55;21024;-27
2022/08/25 16:15:37;;;;;;;46.33;38.25;;;26.00;64.10;;;;;;4759295;55;21016;-25
2022/08/25 16:20:44;;;;;;;44.92;39.25;;;26.00;64.10;;;;;;4736078;59;21564;-29
2022/08/25 16:25:46;;;;;;;43.80;38.40;;;26.00;64.10;;;;;;4736253;55;21075;-31
2022/08/25 16:30:48;;;;;;;42.15;36.58;;;26.00;64.10;;;;;;4778872;55;21015;-34
2022/08/25 16:35:49;;;;;;;42.75;37.97;;;26.00;64.00;;;;;;4739166;55;21059;-30
2022/08/25 16:40:49;;;;;;;47.47;37.78;;;26.00;64.00;;;;;;4746931;55;21059;-35
2022/08/25 16:46:04;;;;;;;43.87;38.38;;;26.00;64.00;;;;;;4736399;59;21112;-28
2022/08/25 16:51:11;;;;;;;43.35;37.80;;;26.00;64.00;;;;;;4774670;55;21125;-26
2022/08/25 16:56:11;;;;;;;;;;;26.00;64.00;;;;;;4753804;55;20996;-31
2022/08/25 17:01:12;;;;;;;44.22;37.38;;;26.00;64.00;;;;;;4746649;55;20279;-27
2022/08/25 17:06:13;;;;;;;42.58;36.88;;;25.90;64.00;;;;;;4736378;59;21051;-27
2022/08/25 17:11:20;;;;;;;44.28;37.65;;;26.00;64.10;;;;;;4742789;55;21023;-30
2022/08/25 17:16:26;;;;;;;43.13;37.13;;;25.90;63.90;;;;;;4738556;55;21437;-30
2022/08/25 17:21:31;;;;;;;43.08;35.70;;;26.00;63.90;;;;;;4736783;59;21593;-26
2022/08/25 17:26:35;;;;;;;42.88;36.63;;;26.00;63.90;;;;;;4736796;59;21058;-30
2022/08/25 17:31:38;;;;;;;40.83;36.28;;;26.00;63.90;;;;;;4735776;59;21541;-28
2022/08/25 17:36:39;;;;;;;42.38;36.00;;;25.90;63.80;;;;;;4746345;55;21573;-26
2022/08/25 17:41:42;;;;;;;42.17;36.00;;;26.00;64.50;;;;;;4736601;59;21078;-29
2022/08/25 17:46:44;;;;;;;41.08;35.67;;;26.00;63.90;;;;;;4745079;55;21545;-27
2022/08/25 17:51:47;;;;;;;41.17;36.55;;;26.00;63.90;;;;;;4736656;55;21008;-27
2022/08/25 17:56:48;;;;;;;41.95;35.97;;;26.00;63.90;;;;;;4736861;55;21007;-30
2022/08/25 18:01:50;;;;;;;40.88;34.65;;;26.00;63.90;;;;;;4754547;55;21485;-32
2022/08/25 18:06:51;;;;;;;40.42;35.70;;;26.00;63.90;;;;;;4754976;55;21569;-32
2022/08/25 18:11:52;;;;;;;41.35;35.28;;;26.00;63.90;;;;;;4781733;55;21019;-37
2022/08/25 18:16:53;;;;;;;38.88;34.60;;;26.00;63.90;;;;;;4753221;55;20991;-31
2022/08/25 18:21:54;;;;;;;38.95;34.40;;;25.90;63.80;;;;;;4748137;55;21477;-35
2022/08/25 18:26:55;;;;;;;41.03;34.95;;;26.00;63.90;;;;;;4736485;55;21090;-36
2022/08/25 18:31:56;;;;;;;39.42;35.13;;;26.00;63.90;;;;;;4776676;55;21036;-29
2022/08/25 18:40:21;;;;;;;40.85;35.00;;;26.00;63.90;;;;;;4753125;55;20987;-27
2022/08/25 18:45:24;;;;;;;39.28;33.90;;;25.90;63.80;;;;;;4736899;59;21109;-28
2022/08/25 18:50:29;;;;;;;37.72;33.65;;;25.90;63.80;;;;;;4755896;55;21126;-28
2022/08/25 18:55:30;;;;;;;37.75;33.67;;;26.00;63.90;;;;;;4735725;59;21514;-36
2022/08/25 19:00:31;;;;;;;39.60;33.80;;;26.00;63.90;;;;;;4757054;55;21031;-31
2022/08/25 19:05:35;;;;;;;38.13;33.40;;;26.00;63.90;;;;;;4751465;55;21047;-31
2022/08/25 19:10:36;;;;;;;38.40;33.08;;;26.00;63.90;;;;;;4759106;55;21035;-31
2022/08/25 19:15:39;;;;;;;36.30;32.40;;;25.90;63.90;;;;;;4735496;59;21052;-30
2022/08/25 19:20:41;;;;;;;35.15;31.33;;;25.90;63.90;;;;;;4762537;55;20996;-29
2022/08/25 19:25:42;;;;;;;38.08;32.65;;;25.90;63.90;;;;;;4736691;59;20979;-34
2022/08/25 19:30:45;;;;;;;38.05;32.80;;;26.00;64.00;;;;;;4736882;59;21480;-29
2022/08/25 19:35:48;;;;;;;36.25;32.03;;;26.00;64.10;;;;;;4737311;55;21474;-30
2022/08/25 19:40:51;;;;;;;37.47;32.80;;;25.90;63.90;;;;;;4742492;55;21090;-27
2022/08/25 19:45:52;;;;;;;36.25;32.33;;;25.90;63.90;;;;;;4783419;55;21058;-27
2022/08/25 19:50:52;;;;;;;37.80;32.33;;;26.00;63.80;;;;;;4736523;59;22045;-27
2022/08/25 19:55:54;;;;;;;35.28;30.92;;;26.00;64.10;;;;;;4763789;55;20995;-27
2022/08/25 20:00:55;;;;;;;33.38;29.80;;;26.00;64.10;;;;;;4756467;55;21458;-27
2022/08/25 20:05:57;;;;;;;35.47;30.50;;;26.00;64.10;;;;;;4749296;55;21109;-25
2022/08/25 20:10:58;;;;;;;36.53;30.80;;;26.00;64.10;;;;;;4742641;55;21023;-33
2022/08/25 20:15:58;;;;;;;34.30;30.60;;;25.90;64.00;;;;;;4757632;55;21004;-28
2022/08/25 20:20:59;;;;;;;34.58;30.58;;;26.00;64.10;;;;;;4748054;55;21540;-28
2022/08/25 20:26:03;;;;;;;34.42;30.60;;;25.90;64.10;;;;;;4770124;55;21069;-28
2022/08/25 20:31:04;;;;;;;34.88;30.62;;;26.00;64.10;;;;;;4769545;55;21059;-26
2022/08/25 20:36:07;;;;;;;34.42;30.62;;;25.90;64.10;;;;;;4791713;55;21498;-30
2022/08/25 20:41:09;;;;;;;33.10;29.52;;;25.90;64.10;;;;;;4758346;55;21012;-26
2022/08/25 20:46:09;;;;;;;31.85;28.48;;;25.90;64.10;;;;;;4748747;55;21083;-29
2022/08/25 20:51:11;;;;;;;32.65;29.17;;;25.90;64.10;;;;;;4752811;55;21158;-32
2022/08/25 20:56:15;;;;;;;34.35;29.83;;;25.90;64.10;;;;;;4760050;55;21521;-35
2022/08/25 21:01:36;;;;;;;33.08;29.45;;;25.90;64.20;;;;;;4748397;55;21047;-32
2022/08/25 21:06:38;;;;;;;31.80;28.40;;;25.90;64.20;;;;;;4753816;55;21569;-33
2022/08/25 21:11:39;;;;;;;31.17;27.60;;;25.90;64.20;;;;;;4762757;55;21115;-27
2022/08/25 21:16:45;;;;;;;31.83;28.45;;;25.90;64.20;;;;;;4739380;55;21010;-34
2022/08/25 21:21:49;;;;;;;30.00;26.80;;;25.90;64.20;;;;;;4759061;55;21525;-28
2022/08/25 21:26:52;;;;;;;30.60;27.35;;;25.90;64.20;;;;;;4741539;55;21517;-31
2022/08/25 21:31:53;;;;;;;30.55;27.23;;;25.90;64.20;;;;;;4736445;59;21056;-30
2022/08/25 21:36:56;;;;;;;29.15;26.00;;;25.90;64.20;;;;;;4765780;55;21018;-29
2022/08/25 21:41:57;;;;;;;31.67;27.50;;;25.90;64.20;;;;;;4776935;55;21526;-32
2022/08/25 21:46:59;;;;;;;31.08;27.37;;;25.90;64.30;;;;;;4763907;55;21534;-28
2022/08/25 21:52:00;;;;;;;28.58;25.52;;;25.90;64.30;;;;;;4745610;55;21474;-35
2022/08/25 21:57:04;;;;;;;29.20;26.10;;;25.90;64.20;;;;;;4742206;55;20996;-33
2022/08/25 22:02:08;;;;;;;30.15;26.95;;;25.90;64.20;;;;;;4750437;55;20987;-31
2022/08/25 22:07:09;;;;;;;29.73;26.58;;;25.90;64.90;;;;;;4762119;55;21055;-30
2022/08/25 22:12:10;;;;;;;27.90;25.05;;;25.90;64.20;;;;;;4763402;55;20999;-32
2022/08/25 22:17:11;;;;;;;27.73;24.83;;;25.90;64.20;;;;;;4745262;55;20987;-31
2022/08/25 22:22:14;;;;;;;28.48;25.35;;;25.90;64.20;;;;;;4762326;55;20976;-34
2022/08/25 22:27:15;;;;;;;30.12;26.92;;;25.90;64.20;;;;;;4785253;55;21147;-30
2022/08/25 22:32:17;;;;;;;27.80;24.83;;;25.90;64.20;;;;;;4749521;55;21600;-26
2022/08/25 22:37:21;;;;;;;29.10;24.10;;;25.90;64.20;;;;;;4758241;55;21103;-29
2022/08/25 22:42:23;;;;;;;28.15;25.15;;;25.90;64.30;;;;;;4754474;55;21102;-34
2022/08/25 22:47:24;;;;;;;26.48;23.67;;;25.90;64.20;;;;;;4736525;59;21569;-36
2022/08/25 22:52:25;;;;;;;27.15;24.37;;;25.90;64.30;;;;;;4793927;55;21071;-35
2022/08/25 22:57:26;;;;;;;27.60;24.60;;;25.90;64.20;;;;;;4737725;55;21044;-28
2022/08/25 23:02:27;;;;;;;26.45;23.58;;;25.90;64.20;;;;;;4770826;55;21842;-36
2022/08/25 23:07:28;;;;;;;25.33;22.77;;;25.90;64.30;;;;;;4740126;55;21445;-30
2022/08/25 23:12:30;;;;;;;26.00;23.23;;;25.90;64.20;;;;;;4775060;55;21137;-32
2022/08/25 23:17:31;;;;;;;26.58;23.87;;;25.90;64.20;;;;;;4791007;55;21007;-33
2022/08/25 23:22:32;;;;;;;26.27;23.58;;;25.90;64.20;;;;;;4736313;59;21003;-36
2022/08/25 23:27:33;;;;;;;26.33;23.65;;;25.90;64.20;;;;;;4824638;55;21577;-36
2022/08/25 23:32:34;;;;;;;26.23;23.52;;;25.90;64.30;;;;;;4744046;55;21054;-33
2022/08/25 23:37:35;;;;;;;25.73;23.12;;;25.90;64.30;;;;;;4771256;55;21488;-29
2022/08/25 23:42:36;;;;;;;27.15;24.27;;;25.90;64.20;;;;;;4842190;55;21031;-31
2022/08/25 23:47:37;;;;;;;24.90;22.30;;;25.90;64.20;;;;;;4744672;55;21059;-36
2022/08/25 23:52:37;;;;;;;24.90;22.08;;;25.90;64.20;;;;;;4736597;59;21035;-35
2022/08/25 23:57:38;;;;;;;24.98;22.30;;;25.90;64.20;;;;;;4736196;59;21957;-36
